Time;durP1;ratioP1;P1;durP2;ratioP2;P2;SDS_P1;SDS_P2;PMS_P1;PMS_P2;Temp;Humidity;BMP_temperature;BMP_pressure;BME280_temperature;BME280_humidity;BME280_pressure;Samples;Min_cycle;Max_cycle;Signal;HPM_P1;HPM_P2
2022/06/25 00:01:37;;;;;;;0.10;0.10;;;25.20;72.20;;;;;;4195185;28;20147;-66
2022/06/25 00:03:59;;;;;;;0.00;0.00;;;25.20;72.20;;;;;;4196034;28;20075;-66
2022/06/25 00:06:21;;;;;;;0.00;0.00;;;25.20;73.10;;;;;;4197075;28;20190;-66
2022/06/25 00:08:48;;;;;;;1.17;1.08;;;25.10;72.10;;;;;;4196116;28;20472;-66
2022/06/25 00:12:31;;;;;;;0.00;0.00;;;25.10;72.20;;;;;;4196497;28;20064;-66
2022/06/25 00:13:52;;;;;;;0.13;0.13;;;25.10;72.10;;;;;;4196917;28;20522;-66
2022/06/25 00:16:15;;;;;;;0.00;0.00;;;25.10;73.00;;;;;;4197036;28;20712;-66
2022/06/25 00:18:37;;;;;;;0.00;0.00;;;25.10;72.10;;;;;;4197131;28;20067;-66
2022/06/25 00:21:00;;;;;;;0.88;0.35;;;25.10;73.00;;;;;;4196823;28;20052;-66
2022/06/25 00:23:21;;;;;;;0.00;0.00;;;25.10;72.20;;;;;;4197005;28;20173;-66
2022/06/25 00:25:43;;;;;;;17.25;2.40;;;25.10;72.20;;;;;;4195154;28;20503;-66
2022/06/25 00:28:06;;;;;;;0.00;0.00;;;25.10;72.20;;;;;;4196875;28;20052;-67
2022/06/25 00:30:28;;;;;;;0.38;0.38;;;25.10;72.20;;;;;;4196699;28;20181;-66
2022/06/25 00:32:52;;;;;;;0.00;0.00;;;25.10;72.20;;;;;;4195658;28;20060;-67
2022/06/25 00:35:14;;;;;;;0.10;0.10;;;25.10;72.20;;;;;;4196856;28;20078;-66
2022/06/25 00:37:37;;;;;;;0.45;0.45;;;25.10;72.10;;;;;;4195457;28;20082;-66
2022/06/25 00:40:00;;;;;;;0.00;0.00;;;25.10;72.10;;;;;;4181576;28;20110;-66
2022/06/25 00:42:22;;;;;;;0.00;0.00;;;25.10;72.10;;;;;;4197011;28;20102;-66
2022/06/25 00:44:45;;;;;;;0.00;0.00;;;25.00;71.90;;;;;;4196844;28;20063;-66
2022/06/25 00:47:09;;;;;;;0.00;0.00;;;25.00;71.90;;;;;;4195263;28;20113;-66
2022/06/25 00:49:32;;;;;;;0.20;0.20;;;25.00;71.90;;;;;;4195758;28;20474;-66
2022/06/25 00:51:57;;;;;;;0.30;0.28;;;25.00;71.90;;;;;;4196877;28;20059;-66
2022/06/25 00:54:21;;;;;;;0.00;0.00;;;25.00;71.90;;;;;;4195574;28;20053;-66
2022/06/25 00:56:48;;;;;;;0.00;0.00;;;25.00;71.90;;;;;;4195254;28;20090;-66
2022/06/25 00:59:13;;;;;;;0.40;0.40;;;25.00;71.80;;;;;;4195623;28;20087;-66
2022/06/25 01:01:36;;;;;;;0.98;0.65;;;24.90;71.80;;;;;;4196694;28;20411;-67
2022/06/25 01:03:58;;;;;;;0.00;0.00;;;24.90;71.90;;;;;;4196804;28;20189;-66
2022/06/25 01:06:22;;;;;;;0.25;0.25;;;24.90;71.80;;;;;;4195416;28;20052;-67
2022/06/25 01:08:44;;;;;;;0.20;0.20;;;24.90;71.80;;;;;;4195315;28;20118;-66
2022/06/25 01:11:07;;;;;;;0.20;0.20;;;24.90;71.80;;;;;;4196027;28;20143;-67
2022/06/25 01:13:30;;;;;;;0.00;0.00;;;24.90;71.80;;;;;;4196362;28;20048;-66
2022/06/25 01:15:52;;;;;;;0.00;0.00;;;24.80;71.90;;;;;;4196115;28;20480;-66
2022/06/25 01:18:14;;;;;;;0.52;0.52;;;24.80;71.90;;;;;;4196338;28;20534;-66
2022/06/25 01:20:37;;;;;;;0.08;0.08;;;24.90;72.00;;;;;;4195786;28;20144;-66
2022/06/25 01:23:00;;;;;;;0.15;0.15;;;24.80;71.80;;;;;;4196069;28;20099;-66
2022/06/25 01:25:22;;;;;;;0.20;0.20;;;24.80;71.90;;;;;;4195745;28;20057;-66
2022/06/25 01:27:45;;;;;;;0.00;0.00;;;24.80;71.90;;;;;;4196005;28;20496;-66
2022/06/25 01:30:09;;;;;;;0.05;0.05;;;24.80;71.90;;;;;;4180853;28;20508;-67
2022/06/25 01:32:31;;;;;;;0.20;0.20;;;24.80;71.90;;;;;;4194824;28;20555;-66
2022/06/25 01:34:54;;;;;;;0.00;0.00;;;24.80;71.80;;;;;;4180500;28;20049;-66
2022/06/25 01:37:16;;;;;;;0.20;0.20;;;24.80;71.80;;;;;;4195499;28;20066;-66
2022/06/25 01:39:39;;;;;;;0.00;0.00;;;24.80;71.80;;;;;;4198318;28;20407;-66
2022/06/25 01:42:03;;;;;;;0.65;0.65;;;24.80;71.80;;;;;;4199594;28;20130;-66
2022/06/25 01:44:24;;;;;;;0.00;0.00;;;24.80;72.60;;;;;;4198971;28;20060;-66
2022/06/25 01:46:46;;;;;;;0.10;0.10;;;24.80;71.70;;;;;;4198893;28;20072;-66
2022/06/25 01:49:08;;;;;;;0.32;0.32;;;24.80;71.70;;;;;;4198616;28;20078;-67
2022/06/25 01:51:30;;;;;;;0.00;0.00;;;24.80;71.70;;;;;;4197694;28;20049;-65
2022/06/25 01:53:53;;;;;;;0.00;0.00;;;24.80;71.70;;;;;;4197454;28;20492;-66
2022/06/25 01:56:16;;;;;;;0.00;0.00;;;24.80;71.70;;;;;;4198774;28;20098;-66
2022/06/25 01:58:39;;;;;;;0.00;0.00;;;24.70;71.60;;;;;;4197529;28;20192;-66
2022/06/25 02:01:01;;;;;;;0.00;0.00;;;24.80;71.60;;;;;;4197528;28;20074;-67
2022/06/25 02:03:23;;;;;;;0.10;0.10;;;24.80;71.60;;;;;;4197034;28;20063;-66
2022/06/25 02:05:58;;;;;;;0.00;0.00;;;24.80;72.50;;;;;;4198809;28;20499;-67
2022/06/25 02:08:20;;;;;;;0.08;0.08;;;24.80;71.70;;;;;;4197643;28;20060;-66
2022/06/25 02:10:43;;;;;;;0.00;0.00;;;24.70;71.50;;;;;;4198878;28;20050;-66
2022/06/25 02:13:07;;;;;;;0.00;0.00;;;24.70;71.50;;;;;;4197442;28;20094;-66
2022/06/25 02:15:32;;;;;;;0.80;0.80;;;24.70;71.50;;;;;;4197804;28;20060;-66
2022/06/25 02:17:57;;;;;;;0.00;0.00;;;24.70;71.50;;;;;;4197533;28;20052;-66
2022/06/25 02:20:19;;;;;;;0.00;0.00;;;24.70;71.50;;;;;;4197682;28;20060;-66
2022/06/25 02:22:41;;;;;;;0.00;0.00;;;24.70;71.60;;;;;;4196792;28;20059;-66
2022/06/25 02:25:04;;;;;;;0.00;0.00;;;24.70;71.50;;;;;;4198313;28;20510;-66
2022/06/25 02:27:27;;;;;;;0.10;0.10;;;24.70;71.60;;;;;;4197204;28;20585;-66
2022/06/25 02:29:50;;;;;;;0.00;0.00;;;24.70;71.60;;;;;;4197134;28;20052;-66
2022/06/25 02:32:12;;;;;;;0.57;0.57;;;24.70;71.60;;;;;;4197377;28;20095;-66
2022/06/25 02:34:34;;;;;;;0.00;0.00;;;24.70;71.50;;;;;;4164336;28;20788;-66
2022/06/25 02:36:56;;;;;;;0.77;0.77;;;24.70;71.60;;;;;;4164604;28;20120;-66
2022/06/25 02:39:21;;;;;;;0.28;0.28;;;24.70;71.50;;;;;;4164377;28;20419;-66
2022/06/25 02:41:44;;;;;;;2.60;0.65;;;24.70;71.60;;;;;;4164555;28;20091;-66
2022/06/25 02:44:06;;;;;;;0.10;0.10;;;24.60;71.50;;;;;;4195767;28;20060;-66
2022/06/25 02:46:35;;;;;;;0.00;0.00;;;24.70;71.50;;;;;;4197139;28;20123;-66
2022/06/25 02:48:58;;;;;;;0.00;0.00;;;24.60;71.50;;;;;;4196196;28;20056;-66
2022/06/25 02:51:20;;;;;;;0.20;0.20;;;24.60;71.50;;;;;;4197283;28;20106;-67
2022/06/25 02:53:44;;;;;;;0.20;0.20;;;24.60;71.50;;;;;;4196842;28;20078;-66
2022/06/25 02:58:58;;;;;;;0.00;0.00;;;24.60;71.40;;;;;;4225829;28;20051;-65
2022/06/25 03:01:29;;;;;;;0.03;0.03;;;24.60;71.40;;;;;;4197073;28;20103;-65
2022/06/25 03:03:54;;;;;;;0.00;0.00;;;24.60;72.30;;;;;;4196657;28;20052;-65
2022/06/25 03:06:17;;;;;;;0.55;0.55;;;24.60;71.40;;;;;;4196865;28;20151;-66
2022/06/25 03:08:39;;;;;;;0.00;0.00;;;24.50;71.30;;;;;;4196412;28;20480;-66
2022/06/25 03:11:02;;;;;;;0.00;0.00;;;24.50;72.20;;;;;;4196835;28;20055;-65
2022/06/25 03:13:25;;;;;;;0.05;0.05;;;24.50;71.30;;;;;;4182826;28;20199;-66
2022/06/25 03:15:48;;;;;;;0.00;0.00;;;24.50;71.30;;;;;;4196590;28;20041;-66
2022/06/25 03:18:11;;;;;;;0.00;0.00;;;24.50;71.30;;;;;;4197681;28;20064;-66
2022/06/25 03:21:04;;;;;;;;;;;24.50;71.30;;;;;;4165372;28;20065;-66
2022/06/25 03:23:28;;;;;;;0.20;0.20;;;24.50;71.30;;;;;;4191751;28;19920;-65
2022/06/25 03:25:51;;;;;;;0.22;0.22;;;24.50;72.20;;;;;;4163748;28;20152;-66
2022/06/25 03:28:13;;;;;;;0.00;0.00;;;24.50;72.20;;;;;;4163648;28;20115;-66
2022/06/25 03:30:38;;;;;;;0.03;0.03;;;24.40;71.30;;;;;;4163595;28;20108;-66
2022/06/25 03:33:02;;;;;;;0.00;0.00;;;24.40;71.30;;;;;;4163526;28;20131;-66
2022/06/25 03:35:33;;;;;;;0.00;0.00;;;24.40;71.40;;;;;;4190984;28;20474;-66
2022/06/25 03:38:06;;;;;;;0.65;0.65;;;24.40;71.30;;;;;;4191267;28;20067;-66
2022/06/25 03:40:29;;;;;;;0.00;0.00;;;24.40;72.20;;;;;;4224236;28;20058;-66
2022/06/25 03:42:51;;;;;;;0.00;0.00;;;24.40;71.30;;;;;;4196488;28;20071;-65
2022/06/25 03:45:13;;;;;;;2.10;1.13;;;24.40;71.30;;;;;;4195875;28;20056;-66
2022/06/25 03:47:35;;;;;;;0.15;0.15;;;24.40;71.30;;;;;;4195801;28;20052;-66
2022/06/25 03:50:00;;;;;;;0.00;0.00;;;24.40;71.20;;;;;;4195273;28;20202;-65
2022/06/25 03:52:22;;;;;;;0.00;0.00;;;24.40;72.20;;;;;;4196182;28;20056;-66
2022/06/25 03:54:45;;;;;;;0.00;0.00;;;24.40;71.20;;;;;;4197137;28;20814;-67
2022/06/25 03:57:08;;;;;;;0.00;0.00;;;24.40;71.20;;;;;;4195980;28;20062;-66
2022/06/25 03:59:40;;;;;;;0.30;0.30;;;24.40;71.50;;;;;;4195304;28;20056;-66
2022/06/25 04:02:14;;;;;;;0.40;0.40;;;24.50;71.30;;;;;;4195713;28;20068;-66
2022/06/25 04:04:56;;;;;;;1.65;0.52;;;24.40;71.20;;;;;;4196962;28;20137;-66
2022/06/25 04:07:18;;;;;;;0.00;0.00;;;24.40;72.00;;;;;;4196059;28;20148;-66
2022/06/25 04:09:41;;;;;;;0.00;0.00;;;24.40;71.10;;;;;;4195481;28;20444;-65
2022/06/25 04:12:04;;;;;;;0.00;0.00;;;24.40;71.10;;;;;;4195782;28;20130;-64
2022/06/25 04:14:27;;;;;;;0.00;0.00;;;24.40;71.10;;;;;;4195630;28;20067;-66
2022/06/25 04:16:49;;;;;;;0.00;0.00;;;24.40;72.00;;;;;;4195638;28;20058;-66
2022/06/25 04:19:12;;;;;;;0.00;0.00;;;24.40;71.00;;;;;;4195903;28;20072;-66
2022/06/25 04:21:35;;;;;;;0.00;0.00;;;24.40;71.00;;;;;;4196044;28;20058;-66
2022/06/25 04:23:57;;;;;;;0.00;0.00;;;24.40;71.00;;;;;;4195814;28;20053;-66
2022/06/25 04:26:23;;;;;;;0.13;0.13;;;24.40;71.00;;;;;;4195970;28;20102;-66
2022/06/25 04:29:03;;;;;;;0.00;0.00;;;24.40;71.00;;;;;;4181465;28;20045;-66
2022/06/25 04:31:36;;;;;;;0.08;0.08;;;24.40;71.80;;;;;;4195588;28;20119;-66
2022/06/25 04:34:00;;;;;;;0.00;0.00;;;24.40;70.90;;;;;;4195888;28;20059;-66
2022/06/25 04:36:22;;;;;;;0.00;0.00;;;24.40;70.90;;;;;;4195870;28;20055;-66
2022/06/25 04:38:47;;;;;;;0.00;0.00;;;24.40;70.90;;;;;;4196696;28;20044;-67
2022/06/25 04:41:10;;;;;;;0.00;0.00;;;24.40;70.90;;;;;;4195574;28;20055;-66
2022/06/25 04:43:33;;;;;;;0.00;0.00;;;24.40;70.90;;;;;;4195798;28;20107;-66
2022/06/25 04:45:58;;;;;;;0.00;0.00;;;24.50;70.90;;;;;;4181000;28;20084;-66
2022/06/25 04:48:22;;;;;;;0.00;0.00;;;24.50;70.80;;;;;;4195277;28;20052;-66
2022/06/25 04:51:04;;;;;;;0.20;0.20;;;24.50;70.80;;;;;;4196300;28;20067;-67
2022/06/25 04:53:26;;;;;;;0.00;0.00;;;24.50;70.70;;;;;;4195337;28;20056;-66
2022/06/25 04:55:48;;;;;;;0.20;0.20;;;24.50;70.70;;;;;;4195464;28;20585;-66
2022/06/25 04:58:12;;;;;;;0.30;0.30;;;24.50;70.70;;;;;;4195581;28;20521;-66
2022/06/25 05:00:53;;;;;;;0.00;0.00;;;24.60;70.70;;;;;;4196481;28;20086;-66
2022/06/25 05:03:17;;;;;;;0.00;0.00;;;24.60;70.70;;;;;;4195393;28;20554;-66
2022/06/25 05:05:58;;;;;;;0.05;0.05;;;24.60;70.60;;;;;;4195949;28;20102;-66
2022/06/25 05:08:21;;;;;;;0.20;0.20;;;24.60;70.60;;;;;;4195465;28;20053;-67
2022/06/25 05:10:43;;;;;;;0.20;0.20;;;24.60;70.50;;;;;;4195220;28;20131;-66
2022/06/25 05:13:14;;;;;;;0.50;0.50;;;24.60;70.50;;;;;;4198669;28;20149;-65
2022/06/25 05:15:40;;;;;;;0.00;0.00;;;24.60;70.70;;;;;;4199577;28;20049;-66
2022/06/25 05:18:03;;;;;;;0.00;0.00;;;24.60;70.90;;;;;;4198714;28;20049;-66
2022/06/25 05:20:27;;;;;;;0.30;0.30;;;24.60;70.80;;;;;;4198434;28;20098;-66
2022/06/25 05:22:49;;;;;;;0.00;0.00;;;24.70;70.90;;;;;;4199407;28;20121;-65
2022/06/25 05:25:13;;;;;;;0.00;0.00;;;24.80;70.90;;;;;;4181727;28;20434;-66
2022/06/25 05:27:35;;;;;;;0.15;0.15;;;24.80;70.40;;;;;;4181833;28;20053;-66
2022/06/25 05:29:58;;;;;;;0.10;0.10;;;24.90;69.80;;;;;;4185628;28;20059;-67
2022/06/25 05:32:21;;;;;;;0.00;0.00;;;25.00;69.20;;;;;;4180716;28;20594;-67
2022/06/25 05:34:43;;;;;;;0.13;0.13;;;25.10;69.50;;;;;;4181750;28;20482;-67
2022/06/25 05:37:07;;;;;;;0.30;0.30;;;25.20;68.20;;;;;;4190909;28;20125;-66
2022/06/25 05:39:29;;;;;;;0.57;0.57;;;25.20;67.90;;;;;;4198187;28;20139;-66
2022/06/25 05:41:51;;;;;;;0.20;0.20;;;25.30;67.70;;;;;;4187545;28;20131;-66
2022/06/25 05:44:13;;;;;;;0.40;0.40;;;25.30;67.50;;;;;;4182759;28;20067;-66
2022/06/25 05:46:35;;;;;;;0.00;0.00;;;25.30;67.10;;;;;;4182831;28;20057;-66
2022/06/25 05:48:57;;;;;;;3.15;0.80;;;25.40;66.90;;;;;;4197313;28;20056;-67
2022/06/25 05:51:19;;;;;;;0.00;0.00;;;25.30;66.70;;;;;;4199058;28;20063;-66
2022/06/25 05:53:43;;;;;;;0.22;0.22;;;25.40;66.60;;;;;;4182347;28;20531;-66
2022/06/25 05:56:05;;;;;;;0.00;0.00;;;25.30;66.60;;;;;;4182354;28;20569;-66
2022/06/25 05:58:27;;;;;;;0.00;0.00;;;25.30;66.70;;;;;;4185953;28;20049;-66
2022/06/25 06:00:49;;;;;;;1.33;0.65;;;25.30;66.80;;;;;;4190108;28;20052;-66
2022/06/25 06:03:11;;;;;;;0.00;0.00;;;25.30;67.30;;;;;;4196335;28;20149;-66
2022/06/25 06:05:35;;;;;;;0.00;0.00;;;25.30;68.00;;;;;;4197583;28;20422;-65
2022/06/25 06:07:57;;;;;;;0.00;0.00;;;25.30;68.50;;;;;;4198604;28;20401;-68
2022/06/25 06:10:21;;;;;;;0.10;0.10;;;25.20;68.20;;;;;;4184442;28;20115;-68
2022/06/25 06:12:43;;;;;;;0.00;0.00;;;25.20;68.50;;;;;;4182073;28;20064;-68
2022/06/25 06:15:06;;;;;;;0.00;0.00;;;25.10;68.20;;;;;;4182171;28;20107;-67
2022/06/25 06:17:28;;;;;;;0.00;0.00;;;25.20;68.40;;;;;;4182247;28;20523;-68
2022/06/25 06:19:50;;;;;;;0.30;0.30;;;25.20;68.50;;;;;;4182379;28;20099;-67
2022/06/25 06:22:12;;;;;;;0.00;0.00;;;25.10;68.20;;;;;;4181004;28;20879;-67
2022/06/25 06:24:38;;;;;;;0.00;0.00;;;25.10;68.10;;;;;;4180046;28;20061;-68
2022/06/25 06:27:02;;;;;;;0.00;0.00;;;25.10;68.00;;;;;;4174912;28;20061;-68
2022/06/25 06:29:25;;;;;;;0.20;0.20;;;25.10;67.90;;;;;;4175512;28;20510;-68
2022/06/25 06:31:47;;;;;;;1.20;0.63;;;25.10;67.70;;;;;;4177191;28;20125;-68
2022/06/25 06:34:09;;;;;;;0.10;0.10;;;25.20;67.70;;;;;;4176045;28;20047;-68
2022/06/25 06:36:31;;;;;;;0.10;0.10;;;25.10;67.50;;;;;;4175779;28;20052;-67
2022/06/25 06:38:53;;;;;;;0.00;0.00;;;25.10;67.50;;;;;;4177859;28;20041;-67
2022/06/25 06:41:16;;;;;;;0.00;0.00;;;25.10;67.50;;;;;;4177259;28;20049;-68
2022/06/25 06:43:40;;;;;;;0.00;0.00;;;25.20;67.50;;;;;;4176858;28;20575;-68
2022/06/25 06:46:02;;;;;;;0.52;0.52;;;25.20;67.50;;;;;;4176779;28;20098;-68
2022/06/25 06:48:25;;;;;;;0.00;0.00;;;25.20;67.30;;;;;;4177106;28;20137;-68
2022/06/25 06:50:47;;;;;;;0.22;0.22;;;25.30;67.20;;;;;;4176680;28;20045;-68
2022/06/25 06:53:08;;;;;;;0.90;0.28;;;25.30;67.10;;;;;;4176816;28;20537;-67
2022/06/25 06:55:31;;;;;;;0.68;0.22;;;25.30;66.90;;;;;;4177058;28;20041;-67
2022/06/25 06:57:53;;;;;;;0.05;0.05;;;25.30;66.90;;;;;;4181858;28;20032;-67
2022/06/25 07:00:17;;;;;;;0.00;0.00;;;25.40;66.90;;;;;;4194197;28;20539;-68
2022/06/25 07:02:40;;;;;;;0.20;0.20;;;25.40;66.70;;;;;;4180894;28;20071;-67
2022/06/25 07:05:02;;;;;;;0.35;0.35;;;25.50;66.50;;;;;;4186427;28;20048;-67
2022/06/25 07:07:25;;;;;;;0.30;0.30;;;25.50;66.40;;;;;;4197304;28;20098;-67
2022/06/25 07:09:47;;;;;;;1.25;1.13;;;25.60;66.20;;;;;;4195421;28;20118;-66
2022/06/25 07:12:09;;;;;;;0.45;0.22;;;25.60;66.10;;;;;;4197049;28;20091;-68
2022/06/25 07:14:31;;;;;;;0.45;0.45;;;25.60;65.80;;;;;;4181332;28;20102;-67
2022/06/25 07:16:55;;;;;;;0.00;0.00;;;25.70;65.80;;;;;;4194978;28;20138;-67
2022/06/25 07:19:17;;;;;;;0.38;0.38;;;25.70;65.60;;;;;;4196636;28;20079;-67
2022/06/25 07:21:39;;;;;;;0.10;0.10;;;25.70;65.50;;;;;;4196048;28;20070;-67
2022/06/25 07:24:01;;;;;;;0.00;0.00;;;25.80;65.30;;;;;;4196893;28;20060;-68
2022/06/25 07:26:24;;;;;;;0.25;0.25;;;25.80;65.20;;;;;;4196864;28;20148;-68
2022/06/25 07:28:46;;;;;;;0.30;0.30;;;25.90;65.10;;;;;;4194340;28;20059;-67
2022/06/25 07:31:08;;;;;;;0.00;0.00;;;25.90;65.00;;;;;;4195010;28;20060;-67
2022/06/25 07:33:31;;;;;;;0.10;0.10;;;25.90;64.90;;;;;;4190229;28;20566;-67
2022/06/25 07:35:53;;;;;;;0.73;0.32;;;25.90;64.90;;;;;;4180345;28;20136;-67
2022/06/25 07:38:16;;;;;;;0.00;0.00;;;25.90;64.90;;;;;;4180929;28;20064;-67
2022/06/25 07:40:37;;;;;;;0.00;0.00;;;26.00;65.90;;;;;;4181091;28;20057;-67
2022/06/25 07:43:01;;;;;;;0.28;0.28;;;25.90;64.80;;;;;;4186995;28;20048;-67
2022/06/25 07:45:22;;;;;;;0.65;0.40;;;26.00;64.80;;;;;;4192762;28;20056;-67
2022/06/25 07:47:44;;;;;;;0.00;0.00;;;26.00;64.70;;;;;;4192301;28;20067;-67
2022/06/25 07:52:50;;;;;;;0.00;0.00;;;26.00;64.70;;;;;;4190728;28;20044;-67
2022/06/25 07:55:14;;;;;;;0.10;0.10;;;26.00;64.60;;;;;;4191993;28;20542;-67
2022/06/25 07:57:36;;;;;;;0.93;0.93;;;26.00;64.60;;;;;;4190570;28;20036;-67
2022/06/25 07:59:59;;;;;;;0.08;0.08;;;26.00;64.70;;;;;;4182960;28;20055;-67
2022/06/25 08:02:21;;;;;;;0.43;0.17;;;26.00;65.60;;;;;;4176027;28;21181;-67
2022/06/25 08:04:42;;;;;;;0.10;0.10;;;26.00;64.50;;;;;;4175633;28;20510;-67
2022/06/25 08:07:06;;;;;;;0.03;0.03;;;26.00;64.40;;;;;;4175842;28;20051;-67
2022/06/25 08:09:28;;;;;;;12.45;0.63;;;26.00;64.30;;;;;;4175420;28;20491;-67
2022/06/25 08:11:50;;;;;;;0.38;0.38;;;26.00;64.90;;;;;;4180159;28;20044;-67
2022/06/25 08:14:12;;;;;;;0.00;0.00;;;26.00;64.00;;;;;;4192394;28;20055;-68
2022/06/25 08:16:35;;;;;;;0.00;0.00;;;26.00;63.70;;;;;;4192385;28;20040;-68
2022/06/25 08:18:57;;;;;;;0.00;0.00;;;26.00;63.80;;;;;;4186900;28;20048;-68
2022/06/25 08:21:19;;;;;;;0.10;0.10;;;26.00;63.80;;;;;;4175370;28;20064;-67
2022/06/25 08:23:43;;;;;;;0.00;0.00;;;26.00;64.50;;;;;;4176657;28;20040;-68
2022/06/25 08:26:05;;;;;;;0.00;0.00;;;26.00;63.40;;;;;;4178738;28;20056;-67
2022/06/25 08:28:27;;;;;;;0.00;0.00;;;26.00;63.40;;;;;;4177292;28;20492;-67
2022/06/25 08:30:49;;;;;;;0.00;0.00;;;26.10;63.40;;;;;;4183906;28;20137;-66
2022/06/25 08:33:11;;;;;;;0.22;0.22;;;26.00;63.40;;;;;;4178969;28;20060;-67
2022/06/25 08:35:33;;;;;;;0.00;0.00;;;26.00;63.40;;;;;;4175665;28;20103;-67
2022/06/25 08:37:56;;;;;;;0.00;0.00;;;26.10;63.40;;;;;;4179768;28;20064;-69
2022/06/25 08:40:21;;;;;;;0.35;0.35;;;26.10;64.30;;;;;;4180760;28;20526;-67
2022/06/25 08:42:43;;;;;;;0.00;0.00;;;26.10;63.50;;;;;;4178154;28;20087;-67
2022/06/25 08:45:07;;;;;;;2.05;0.90;;;26.20;63.50;;;;;;4190197;28;20048;-67
2022/06/25 08:47:29;;;;;;;0.00;0.00;;;26.20;63.50;;;;;;4177645;28;20059;-67
2022/06/25 08:49:52;;;;;;;0.00;0.00;;;26.10;63.30;;;;;;4172808;28;20064;-67
2022/06/25 08:52:16;;;;;;;0.00;0.00;;;26.10;63.20;;;;;;4166967;28;20069;-66
2022/06/25 08:54:39;;;;;;;0.00;0.00;;;26.10;63.20;;;;;;4169568;28;20826;-67
2022/06/25 08:57:04;;;;;;;0.00;0.00;;;26.20;63.10;;;;;;4191811;28;20044;-67
2022/06/25 08:59:26;;;;;;;0.00;0.00;;;26.20;62.90;;;;;;4185008;28;20064;-67
2022/06/25 09:01:48;;;;;;;0.00;0.00;;;26.20;62.90;;;;;;4183472;28;20060;-67
2022/06/25 09:04:10;;;;;;;0.00;0.00;;;26.30;63.00;;;;;;4180696;28;20045;-67
2022/06/25 09:06:32;;;;;;;0.47;0.47;;;26.30;62.80;;;;;;4184785;28;20052;-67
2022/06/25 09:09:11;;;;;;;0.00;0.00;;;26.30;62.40;;;;;;4198880;28;20059;-67
2022/06/25 09:11:47;;;;;;;0.00;0.00;;;26.30;62.10;;;;;;4199487;28;20064;-66
2022/06/25 09:14:22;;;;;;;0.00;0.00;;;26.30;61.90;;;;;;4191139;28;20538;-66
2022/06/25 09:16:49;;;;;;;0.00;0.00;;;26.30;61.30;;;;;;4174735;28;20536;-67
2022/06/25 09:19:12;;;;;;;0.00;0.00;;;26.30;61.00;;;;;;4190151;28;20049;-67
2022/06/25 09:21:42;;;;;;;0.00;0.00;;;26.30;61.10;;;;;;4199748;28;20804;-67
2022/06/25 09:24:04;;;;;;;0.00;0.00;;;26.30;61.30;;;;;;4199513;28;20083;-67
2022/06/25 09:26:26;;;;;;;0.00;0.00;;;26.30;61.30;;;;;;4198959;28;20372;-67
2022/06/25 09:28:48;;;;;;;0.10;0.10;;;26.30;61.50;;;;;;4199497;28;20129;-67
2022/06/25 09:31:11;;;;;;;0.30;0.30;;;26.30;61.30;;;;;;4198911;28;20049;-67
2022/06/25 09:33:35;;;;;;;0.00;0.00;;;26.30;61.20;;;;;;4199558;28;20052;-65
2022/06/25 09:35:57;;;;;;;0.00;0.00;;;26.30;61.30;;;;;;4197912;28;20403;-65
2022/06/25 09:38:19;;;;;;;0.30;0.30;;;26.40;61.50;;;;;;4196694;28;20052;-68
2022/06/25 09:40:49;;;;;;;0.00;0.00;;;26.40;61.50;;;;;;4196253;28;20103;-66
2022/06/25 09:43:12;;;;;;;0.00;0.00;;;26.40;61.40;;;;;;4165784;28;20091;-66
2022/06/25 09:45:37;;;;;;;0.00;0.00;;;26.40;61.40;;;;;;4170229;28;20445;-66
2022/06/25 09:48:01;;;;;;;0.00;0.00;;;26.40;61.00;;;;;;4182627;28;20051;-65
2022/06/25 09:50:23;;;;;;;0.20;0.20;;;26.30;60.70;;;;;;4181416;28;20412;-65
2022/06/25 09:52:53;;;;;;;0.15;0.15;;;26.40;60.30;;;;;;4181421;28;20118;-66
2022/06/25 09:55:16;;;;;;;0.00;0.00;;;26.40;60.10;;;;;;4181402;28;20115;-66
2022/06/25 09:57:38;;;;;;;0.00;0.00;;;26.30;60.00;;;;;;4181261;28;20056;-66
2022/06/25 10:00:01;;;;;;;0.00;0.00;;;26.40;60.20;;;;;;4184513;28;20060;-66
2022/06/25 10:02:32;;;;;;;0.00;0.00;;;26.40;60.30;;;;;;4186488;28;20052;-66
2022/06/25 10:05:00;;;;;;;0.00;0.00;;;26.40;60.30;;;;;;4179957;28;20075;-65
2022/06/25 10:07:59;;;;;;;0.00;0.00;;;26.30;60.10;;;;;;4176679;28;20129;-66
2022/06/25 10:10:05;;;;;;;0.00;0.00;;;26.40;60.40;;;;;;4180101;28;20045;-66
2022/06/25 10:12:27;;;;;;;0.00;0.00;;;26.40;60.40;;;;;;4179902;28;20567;-65
2022/06/25 10:14:49;;;;;;;0.65;0.65;;;26.40;60.40;;;;;;4181175;28;20099;-69
2022/06/25 10:17:12;;;;;;;0.00;0.00;;;26.40;60.40;;;;;;4171169;28;20072;-69
2022/06/25 10:19:35;;;;;;;0.00;0.00;;;26.40;60.30;;;;;;4176543;28;20114;-69
2022/06/25 10:22:00;;;;;;;0.00;0.00;;;26.40;60.30;;;;;;4180595;28;20059;-69
2022/06/25 10:24:21;;;;;;;0.00;0.00;;;26.40;60.10;;;;;;4183381;28;20834;-70
2022/06/25 10:26:44;;;;;;;0.00;0.00;;;26.40;59.90;;;;;;4188082;28;20060;-70
2022/06/25 10:29:24;;;;;;;0.00;0.00;;;26.50;59.70;;;;;;4195068;28;20131;-69
2022/06/25 10:31:46;;;;;;;0.00;0.00;;;26.50;59.50;;;;;;4164607;28;20152;-69
2022/06/25 10:34:10;;;;;;;0.00;0.00;;;26.40;59.20;;;;;;4164481;28;20072;-69
2022/06/25 10:36:43;;;;;;;0.00;0.00;;;26.50;59.20;;;;;;4165075;28;20397;-69
2022/06/25 10:39:35;;;;;;;0.00;0.00;;;26.50;59.20;;;;;;4197533;28;20139;-69
2022/06/25 10:45:46;;;;;;;0.00;0.00;;;26.50;59.10;;;;;;4197679;28;20076;-69
2022/06/25 10:48:09;;;;;;;0.00;0.00;;;26.50;58.90;;;;;;4136616;28;20081;-68
2022/06/25 10:50:32;;;;;;;0.00;0.00;;;26.50;58.90;;;;;;4138312;28;1076588;-69
2022/06/25 10:53:19;;;;;;;0.00;0.00;;;26.50;58.70;;;;;;4208757;28;20147;-69
2022/06/25 10:56:02;;;;;;;0.00;0.00;;;26.50;58.60;;;;;;4180833;28;20156;-68
2022/06/25 10:58:25;;;;;;;0.00;0.00;;;26.60;58.80;;;;;;4195074;28;20080;-69
2022/06/25 11:00:48;;;;;;;0.00;0.00;;;26.60;58.80;;;;;;4198092;28;20052;-69
2022/06/25 11:03:10;;;;;;;0.00;0.00;;;26.60;58.90;;;;;;4196734;28;20424;-69
2022/06/25 11:05:41;;;;;;;0.00;0.00;;;26.60;59.00;;;;;;4198005;28;20125;-69
2022/06/25 11:08:03;;;;;;;0.00;0.00;;;26.60;59.70;;;;;;4197613;28;20060;-69
2022/06/25 11:10:35;;;;;;;0.00;0.00;;;26.60;58.90;;;;;;4196007;28;20054;-68
2022/06/25 11:12:58;;;;;;;0.00;0.00;;;26.60;58.70;;;;;;4197908;28;20140;-69
2022/06/25 11:15:21;;;;;;;0.60;0.60;;;26.60;58.60;;;;;;4196336;28;20052;-69
2022/06/25 11:17:43;;;;;;;0.00;0.00;;;26.70;58.70;;;;;;4197277;28;20189;-69
2022/06/25 11:20:07;;;;;;;0.00;0.00;;;26.70;58.60;;;;;;4197315;28;20071;-69
2022/06/25 11:22:29;;;;;;;0.00;0.00;;;26.70;58.60;;;;;;4197164;28;20060;-69
2022/06/25 11:30:14;;;;;;;0.00;0.00;;;26.70;58.60;;;;;;4196998;28;20473;-69
2022/06/25 11:32:43;;;;;;;0.00;0.00;;;26.80;58.70;;;;;;4196921;28;20106;-70
2022/06/25 11:35:06;;;;;;;0.03;0.03;;;26.80;58.80;;;;;;4196680;28;20109;-69
2022/06/25 11:37:31;;;;;;;0.03;0.03;;;26.80;58.80;;;;;;4197038;28;20060;-69
2022/06/25 11:39:54;;;;;;;0.00;0.00;;;26.90;58.90;;;;;;4196774;28;20059;-70
2022/06/25 11:42:19;;;;;;;0.00;0.00;;;26.90;58.80;;;;;;4196905;28;20105;-70
2022/06/25 11:44:45;;;;;;;0.00;0.00;;;26.90;58.80;;;;;;4197038;28;20056;-70
2022/06/25 11:47:11;;;;;;;0.30;0.30;;;26.90;58.80;;;;;;4197008;28;20456;-70
2022/06/25 11:49:37;;;;;;;0.00;0.00;;;26.90;58.80;;;;;;4197200;28;20680;-69
2022/06/25 11:51:59;;;;;;;0.00;0.00;;;26.90;58.70;;;;;;4197062;28;20117;-69
2022/06/25 11:54:25;;;;;;;0.00;0.00;;;26.90;58.70;;;;;;4196867;28;20056;-69
2022/06/25 11:56:48;;;;;;;0.00;0.00;;;26.90;58.70;;;;;;4195712;28;20078;-69
2022/06/25 11:59:11;;;;;;;0.00;0.00;;;27.00;58.70;;;;;;4196744;28;20415;-69
2022/06/25 12:01:33;;;;;;;0.03;0.03;;;27.00;58.60;;;;;;4196741;28;20067;-70
2022/06/25 12:03:56;;;;;;;0.10;0.10;;;27.00;58.60;;;;;;4196813;28;20058;-69
2022/06/25 12:06:19;;;;;;;0.30;0.30;;;27.00;58.50;;;;;;4196372;28;20495;-69
2022/06/25 12:08:41;;;;;;;0.00;0.00;;;27.00;58.50;;;;;;4196753;28;20472;-69
2022/06/25 12:11:03;;;;;;;0.00;0.00;;;27.00;58.50;;;;;;4196923;28;20056;-68
2022/06/25 12:13:27;;;;;;;0.00;0.00;;;27.00;58.50;;;;;;4197166;28;20106;-68
2022/06/25 12:15:57;;;;;;;0.00;0.00;;;27.00;58.50;;;;;;4196865;28;20139;-68
2022/06/25 12:18:19;;;;;;;0.00;0.00;;;27.00;58.50;;;;;;4195900;28;20400;-69
2022/06/25 12:20:55;;;;;;;0.00;0.00;;;27.00;58.60;;;;;;4196782;28;20502;-69
2022/06/25 12:23:17;;;;;;;0.00;0.00;;;27.00;58.60;;;;;;4196461;28;20146;-69
2022/06/25 12:25:40;;;;;;;0.15;0.15;;;27.00;59.30;;;;;;4196666;28;20132;-69
2022/06/25 12:28:02;;;;;;;0.00;0.00;;;27.00;59.30;;;;;;4196749;28;20064;-69
2022/06/25 12:30:26;;;;;;;0.43;0.43;;;27.00;58.60;;;;;;4196782;28;20055;-69
2022/06/25 12:32:47;;;;;;;0.00;0.00;;;27.00;58.50;;;;;;4196547;28;20060;-70
2022/06/25 12:35:18;;;;;;;0.45;0.45;;;27.00;58.60;;;;;;4191702;28;20103;-70
2022/06/25 12:37:41;;;;;;;0.00;0.00;;;27.00;58.50;;;;;;4180041;28;20053;-70
2022/06/25 12:40:03;;;;;;;0.00;0.00;;;27.00;58.40;;;;;;4179862;28;20122;-70
2022/06/25 12:42:28;;;;;;;0.00;0.00;;;27.00;58.10;;;;;;4188899;28;20052;-70
2022/06/25 12:44:52;;;;;;;0.00;0.00;;;27.00;58.00;;;;;;4195797;28;20131;-70
2022/06/25 12:47:15;;;;;;;0.25;0.25;;;27.00;57.70;;;;;;4196240;28;20422;-69